sensor_id;sensor_type;location;lat;lon;timestamp;pressure;altitude;pressure_sealevel;temperature;humidity
48848;BME280;36611;51.638;5.784;2022-07-10T00:01:49;102620.41;;;20.14;47.30
48848;BME280;36611;51.638;5.784;2022-07-10T00:04:19;102623.00;;;20.15;47.00
48848;BME280;36611;51.638;5.784;2022-07-10T00:06:46;102625.47;;;20.18;47.13
48848;BME280;36611;51.638;5.784;2022-07-10T00:09:15;102626.59;;;20.16;46.99
48848;BME280;36611;51.638;5.784;2022-07-10T00:11:42;102623.13;;;20.14;47.27
48848;BME280;36611;51.638;5.784;2022-07-10T00:14:12;102611.47;;;20.12;46.99
48848;BME280;36611;51.638;5.784;2022-07-10T00:16:39;102613.34;;;20.11;47.33
48848;BME280;36611;51.638;5.784;2022-07-10T00:19:06;102617.06;;;20.10;47.02
48848;BME280;36611;51.638;5.784;2022-07-10T00:21:32;102604.63;;;20.06;47.25
48848;BME280;36611;51.638;5.784;2022-07-10T00:24:00;102606.00;;;20.00;47.08
48848;BME280;36611;51.638;5.784;2022-07-10T00:26:27;102611.84;;;19.96;47.36
48848;BME280;36611;51.638;5.784;2022-07-10T00:28:53;102612.72;;;19.96;47.72
48848;BME280;36611;51.638;5.784;2022-07-10T00:31:21;102612.34;;;20.01;47.90
48848;BME280;36611;51.638;5.784;2022-07-10T00:33:49;102608.50;;;20.04;47.87
48848;BME280;36611;51.638;5.784;2022-07-10T00:36:17;102623.00;;;20.04;47.61
48848;BME280;36611;51.638;5.784;2022-07-10T00:38:44;102614.81;;;20.04;47.66
48848;BME280;36611;51.638;5.784;2022-07-10T00:41:10;102610.09;;;20.06;47.68
48848;BME280;36611;51.638;5.784;2022-07-10T00:43:56;102599.44;;;20.03;47.82
48848;BME280;36611;51.638;5.784;2022-07-10T00:46:27;102610.34;;;20.03;47.41
48848;BME280;36611;51.638;5.784;2022-07-10T00:48:55;102594.50;;;19.97;47.41
48848;BME280;36611;51.638;5.784;2022-07-10T00:51:25;102600.19;;;19.94;47.84
48848;BME280;36611;51.638;5.784;2022-07-10T00:53:57;102591.16;;;19.93;47.83
48848;BME280;36611;51.638;5.784;2022-07-10T00:56:26;102582.97;;;19.93;47.93
48848;BME280;36611;51.638;5.784;2022-07-10T00:58:53;102589.41;;;19.92;47.71
48848;BME280;36611;51.638;5.784;2022-07-10T01:01:20;102590.53;;;19.90;47.62
48848;BME280;36611;51.638;5.784;2022-07-10T01:03:53;102587.22;;;19.86;47.70
48848;BME280;36611;51.638;5.784;2022-07-10T01:06:19;102581.41;;;19.80;47.53
48848;BME280;36611;51.638;5.784;2022-07-10T01:08:46;102576.44;;;19.74;48.00
48848;BME280;36611;51.638;5.784;2022-07-10T01:11:14;102565.81;;;19.71;47.67
48848;BME280;36611;51.638;5.784;2022-07-10T01:13:43;102573.13;;;19.70;48.13
48848;BME280;36611;51.638;5.784;2022-07-10T01:16:11;102571.38;;;19.69;47.68
48848;BME280;36611;51.638;5.784;2022-07-10T01:18:38;102568.66;;;19.69;48.02
48848;BME280;36611;51.638;5.784;2022-07-10T01:21:06;102568.03;;;19.65;47.64
48848;BME280;36611;51.638;5.784;2022-07-10T01:23:33;102559.38;;;19.60;47.77
48848;BME280;36611;51.638;5.784;2022-07-10T01:26:00;102561.50;;;19.57;47.97
48848;BME280;36611;51.638;5.784;2022-07-10T01:28:29;102565.47;;;19.53;48.19
48848;BME280;36611;51.638;5.784;2022-07-10T01:30:56;102568.41;;;19.50;47.93
48848;BME280;36611;51.638;5.784;2022-07-10T01:33:27;102565.06;;;19.46;48.15
48848;BME280;36611;51.638;5.784;2022-07-10T01:35:53;102568.03;;;19.43;47.91
48848;BME280;36611;51.638;5.784;2022-07-10T01:38:20;102564.56;;;19.41;47.93
48848;BME280;36611;51.638;5.784;2022-07-10T01:40:46;102563.94;;;19.38;48.22
48848;BME280;36611;51.638;5.784;2022-07-10T01:43:16;102564.31;;;19.33;48.29
48848;BME280;36611;51.638;5.784;2022-07-10T01:45:42;102560.94;;;19.29;48.01
48848;BME280;36611;51.638;5.784;2022-07-10T01:48:10;102562.31;;;19.24;48.25
48848;BME280;36611;51.638;5.784;2022-07-10T01:50:37;102561.56;;;19.22;48.39
48848;BME280;36611;51.638;5.784;2022-07-10T01:53:08;102559.34;;;19.16;48.51
48848;BME280;36611;51.638;5.784;2022-07-10T01:55:35;102560.56;;;19.12;48.19
48848;BME280;36611;51.638;5.784;2022-07-10T01:58:01;102555.13;;;19.12;48.67
48848;BME280;36611;51.638;5.784;2022-07-10T02:00:28;102552.53;;;19.10;48.63
48848;BME280;36611;51.638;5.784;2022-07-10T02:02:55;102553.50;;;19.09;49.09
48848;BME280;36611;51.638;5.784;2022-07-10T02:05:40;102555.50;;;19.07;49.12
48848;BME280;36611;51.638;5.784;2022-07-10T02:08:07;102551.91;;;19.07;49.24
48848;BME280;36611;51.638;5.784;2022-07-10T02:10:33;102547.44;;;19.05;49.12
48848;BME280;36611;51.638;5.784;2022-07-10T02:13:02;102556.84;;;19.01;49.42
48848;BME280;36611;51.638;5.784;2022-07-10T02:15:29;102548.94;;;18.98;49.70
48848;BME280;36611;51.638;5.784;2022-07-10T02:17:55;102551.66;;;18.98;49.46
48848;BME280;36611;51.638;5.784;2022-07-10T02:20:22;102550.03;;;18.96;49.75
48848;BME280;36611;51.638;5.784;2022-07-10T02:22:50;102553.63;;;18.96;49.56
48848;BME280;36611;51.638;5.784;2022-07-10T02:25:17;102550.91;;;18.96;49.50
48848;BME280;36611;51.638;5.784;2022-07-10T02:27:43;102546.44;;;18.95;49.85
48848;BME280;36611;51.638;5.784;2022-07-10T02:30:10;102550.91;;;18.96;49.89
48848;BME280;36611;51.638;5.784;2022-07-10T02:32:39;102544.59;;;18.96;50.23
48848;BME280;36611;51.638;5.784;2022-07-10T02:35:06;102553.00;;;18.93;50.05
48848;BME280;36611;51.638;5.784;2022-07-10T02:37:33;102546.06;;;18.89;50.06
48848;BME280;36611;51.638;5.784;2022-07-10T02:39:59;102537.91;;;18.89;50.65
48848;BME280;36611;51.638;5.784;2022-07-10T02:42:32;102543.34;;;18.89;50.68
48848;BME280;36611;51.638;5.784;2022-07-10T02:44:58;102539.63;;;18.90;50.32
48848;BME280;36611;51.638;5.784;2022-07-10T02:47:25;102543.97;;;18.92;50.67
48848;BME280;36611;51.638;5.784;2022-07-10T02:49:52;102544.97;;;18.91;50.19
48848;BME280;36611;51.638;5.784;2022-07-10T02:52:18;102544.97;;;18.91;50.10
48848;BME280;36611;51.638;5.784;2022-07-10T02:54:49;102536.03;;;18.89;50.34
48848;BME280;36611;51.638;5.784;2022-07-10T02:57:17;102544.97;;;18.91;50.64
48848;BME280;36611;51.638;5.784;2022-07-10T02:59:44;102535.94;;;18.91;50.65
48848;BME280;36611;51.638;5.784;2022-07-10T03:02:11;102542.13;;;18.93;50.17
48848;BME280;36611;51.638;5.784;2022-07-10T03:04:41;102540.88;;;18.97;50.48
48848;BME280;36611;51.638;5.784;2022-07-10T03:07:08;102541.38;;;19.02;50.43
48848;BME280;36611;51.638;5.784;2022-07-10T03:09:35;102537.31;;;19.08;50.52
48848;BME280;36611;51.638;5.784;2022-07-10T03:12:02;102538.03;;;19.10;50.50
48848;BME280;36611;51.638;5.784;2022-07-10T03:14:31;102540.75;;;19.10;50.34
48848;BME280;36611;51.638;5.784;2022-07-10T03:16:58;102539.53;;;19.14;50.69
48848;BME280;36611;51.638;5.784;2022-07-10T03:19:25;102537.53;;;19.16;50.35
48848;BME280;36611;51.638;5.784;2022-07-10T03:21:51;102526.41;;;19.19;50.51
48848;BME280;36611;51.638;5.784;2022-07-10T03:24:42;102528.38;;;19.17;50.59
48848;BME280;36611;51.638;5.784;2022-07-10T03:27:13;102528.25;;;19.18;50.56
48848;BME280;36611;51.638;5.784;2022-07-10T03:29:40;102532.09;;;19.16;50.17
48848;BME280;36611;51.638;5.784;2022-07-10T03:32:07;102526.03;;;19.12;50.42
48848;BME280;36611;51.638;5.784;2022-07-10T03:34:35;102529.13;;;19.08;50.42
48848;BME280;36611;51.638;5.784;2022-07-10T03:37:02;102525.78;;;19.04;50.63
48848;BME280;36611;51.638;5.784;2022-07-10T03:39:28;102528.88;;;18.99;50.91
48848;BME280;36611;51.638;5.784;2022-07-10T03:41:55;102519.72;;;19.00;51.11
48848;BME280;36611;51.638;5.784;2022-07-10T03:44:26;102511.06;;;18.95;50.93
48848;BME280;36611;51.638;5.784;2022-07-10T03:46:52;102516.50;;;18.95;50.86
48848;BME280;36611;51.638;5.784;2022-07-10T03:49:19;102515.50;;;18.96;51.38
48848;BME280;36611;51.638;5.784;2022-07-10T03:51:46;102524.44;;;18.98;51.43
48848;BME280;36611;51.638;5.784;2022-07-10T03:57:34;102522.44;;;19.00;51.05
48848;BME280;36611;51.638;5.784;2022-07-10T04:00:26;102520.97;;;18.96;51.19
48848;BME280;36611;51.638;5.784;2022-07-10T04:03:02;102518.59;;;18.92;51.17
48848;BME280;36611;51.638;5.784;2022-07-10T04:05:29;102518.47;;;18.93;51.50
48848;BME280;36611;51.638;5.784;2022-07-10T04:07:57;102520.97;;;18.96;51.47
48848;BME280;36611;51.638;5.784;2022-07-10T04:10:25;102523.31;;;19.01;51.29
48848;BME280;36611;51.638;5.784;2022-07-10T04:12:55;102516.63;;;19.05;51.72
48848;BME280;36611;51.638;5.784;2022-07-10T04:15:22;102518.47;;;19.04;51.53
48848;BME280;36611;51.638;5.784;2022-07-10T04:17:50;102521.34;;;19.03;51.43
48848;BME280;36611;51.638;5.784;2022-07-10T04:20:17;102518.72;;;19.01;51.47
48848;BME280;36611;51.638;5.784;2022-07-10T04:22:47;102519.84;;;18.99;51.24
48848;BME280;36611;51.638;5.784;2022-07-10T04:25:14;102515.38;;;18.98;51.62
48848;BME280;36611;51.638;5.784;2022-07-10T04:27:41;102513.53;;;18.98;51.34
48848;BME280;36611;51.638;5.784;2022-07-10T04:30:08;102517.00;;;19.00;51.41
48848;BME280;36611;51.638;5.784;2022-07-10T04:32:38;102511.44;;;19.02;51.58
48848;BME280;36611;51.638;5.784;2022-07-10T04:35:05;102517.50;;;19.05;51.41
48848;BME280;36611;51.638;5.784;2022-07-10T04:37:32;102517.25;;;19.09;51.91
48848;BME280;36611;51.638;5.784;2022-07-10T04:40:00;102523.56;;;19.09;51.71
48848;BME280;36611;51.638;5.784;2022-07-10T04:42:29;102516.13;;;19.11;51.51
48848;BME280;36611;51.638;5.784;2022-07-10T04:44:55;102512.53;;;19.11;51.57
48848;BME280;36611;51.638;5.784;2022-07-10T04:47:22;102518.72;;;19.13;51.81
48848;BME280;36611;51.638;5.784;2022-07-10T04:49:49;102519.47;;;19.15;51.53
48848;BME280;36611;51.638;5.784;2022-07-10T04:52:18;102512.78;;;19.19;51.43
48848;BME280;36611;51.638;5.784;2022-07-10T04:54:44;102516.25;;;19.21;51.55
48848;BME280;36611;51.638;5.784;2022-07-10T04:57:11;102517.00;;;19.23;52.00
48848;BME280;36611;51.638;5.784;2022-07-10T04:59:37;102519.59;;;19.24;51.86
48848;BME280;36611;51.638;5.784;2022-07-10T05:02:04;102518.47;;;19.27;51.63
48848;BME280;36611;51.638;5.784;2022-07-10T05:04:31;102526.41;;;19.30;52.03
48848;BME280;36611;51.638;5.784;2022-07-10T05:06:57;102529.66;;;19.35;51.58
48848;BME280;36611;51.638;5.784;2022-07-10T05:09:24;102529.53;;;19.36;51.58
48848;BME280;36611;51.638;5.784;2022-07-10T05:11:51;102537.56;;;19.38;51.91
48848;BME280;36611;51.638;5.784;2022-07-10T05:14:22;102524.81;;;19.39;51.61
48848;BME280;36611;51.638;5.784;2022-07-10T05:16:49;102526.53;;;19.40;52.02
48848;BME280;36611;51.638;5.784;2022-07-10T05:19:15;102530.00;;;19.42;51.62
48848;BME280;36611;51.638;5.784;2022-07-10T05:21:42;102522.44;;;19.45;51.58
48848;BME280;36611;51.638;5.784;2022-07-10T05:24:12;102528.50;;;19.49;51.99
48848;BME280;36611;51.638;5.784;2022-07-10T05:26:39;102525.66;;;19.50;52.01
48848;BME280;36611;51.638;5.784;2022-07-10T05:29:06;102521.09;;;19.51;51.58
48848;BME280;36611;51.638;5.784;2022-07-10T05:31:32;102523.72;;;19.52;51.52
48848;BME280;36611;51.638;5.784;2022-07-10T05:34:01;102530.91;;;19.53;51.80
48848;BME280;36611;51.638;5.784;2022-07-10T05:36:28;102532.63;;;19.54;51.48
48848;BME280;36611;51.638;5.784;2022-07-10T05:38:54;102531.50;;;19.57;51.98
48848;BME280;36611;51.638;5.784;2022-07-10T05:41:21;102542.03;;;19.61;51.82
48848;BME280;36611;51.638;5.784;2022-07-10T05:43:49;102538.78;;;19.67;51.93
48848;BME280;36611;51.638;5.784;2022-07-10T05:46:15;102529.50;;;19.70;51.68
48848;BME280;36611;51.638;5.784;2022-07-10T05:48:42;102521.06;;;19.73;51.73
48848;BME280;36611;51.638;5.784;2022-07-10T05:51:09;102523.53;;;19.76;51.74
48848;BME280;36611;51.638;5.784;2022-07-10T05:53:57;102533.94;;;19.82;51.54
48848;BME280;36611;51.638;5.784;2022-07-10T05:56:24;102533.53;;;19.87;51.33
48848;BME280;36611;51.638;5.784;2022-07-10T05:58:50;102528.81;;;19.89;51.76
48848;BME280;36611;51.638;5.784;2022-07-10T06:01:17;102532.16;;;19.92;51.89
48848;BME280;36611;51.638;5.784;2022-07-10T06:03:48;102533.38;;;19.99;51.52
48848;BME280;36611;51.638;5.784;2022-07-10T06:06:15;102531.13;;;20.05;51.69
48848;BME280;36611;51.638;5.784;2022-07-10T06:08:43;102535.34;;;20.09;51.75
48848;BME280;36611;51.638;5.784;2022-07-10T06:11:10;102527.91;;;20.11;51.21
48848;BME280;36611;51.638;5.784;2022-07-10T06:13:40;102533.09;;;20.14;51.10
48848;BME280;36611;51.638;5.784;2022-07-10T06:16:06;102534.44;;;20.19;51.25
48848;BME280;36611;51.638;5.784;2022-07-10T06:18:33;102535.91;;;20.23;51.09
48848;BME280;36611;51.638;5.784;2022-07-10T06:21:00;102537.50;;;20.26;51.60
48848;BME280;36611;51.638;5.784;2022-07-10T06:23:30;102536.38;;;20.28;51.06
48848;BME280;36611;51.638;5.784;2022-07-10T06:25:57;102532.53;;;20.31;51.43
48848;BME280;36611;51.638;5.784;2022-07-10T06:28:23;102538.59;;;20.35;51.09
48848;BME280;36611;51.638;5.784;2022-07-10T06:30:50;102541.81;;;20.40;50.99
48848;BME280;36611;51.638;5.784;2022-07-10T06:33:27;102534.97;;;20.45;51.23
48848;BME280;36611;51.638;5.784;2022-07-10T06:35:53;102527.13;;;20.52;51.31
48848;BME280;36611;51.638;5.784;2022-07-10T06:38:20;102522.84;;;20.59;51.30
48848;BME280;36611;51.638;5.784;2022-07-10T06:40:47;102526.78;;;20.66;51.21
48848;BME280;36611;51.638;5.784;2022-07-10T06:43:15;102520.66;;;20.74;51.11
48848;BME280;36611;51.638;5.784;2022-07-10T06:45:42;102526.19;;;20.83;51.10
48848;BME280;36611;51.638;5.784;2022-07-10T06:48:08;102528.38;;;20.89;50.61
48848;BME280;36611;51.638;5.784;2022-07-10T06:50:35;102531.72;;;20.93;50.57
48848;BME280;36611;51.638;5.784;2022-07-10T06:53:06;102529.44;;;20.98;50.66
48848;BME280;36611;51.638;5.784;2022-07-10T06:55:33;102520.97;;;21.01;50.41
48848;BME280;36611;51.638;5.784;2022-07-10T06:58:01;102523.56;;;21.03;50.50
48848;BME280;36611;51.638;5.784;2022-07-10T07:00:28;102526.03;;;21.06;50.37
48848;BME280;36611;51.638;5.784;2022-07-10T07:02:56;102528.47;;;21.09;50.03
48848;BME280;36611;51.638;5.784;2022-07-10T07:05:22;102527.63;;;21.08;50.31
48848;BME280;36611;51.638;5.784;2022-07-10T07:07:49;102533.81;;;21.10;50.28
48848;BME280;36611;51.638;5.784;2022-07-10T07:10:16;102533.66;;;21.12;49.95
48848;BME280;36611;51.638;5.784;2022-07-10T07:12:44;102527.34;;;21.11;50.10
48848;BME280;36611;51.638;5.784;2022-07-10T07:15:10;102531.94;;;21.11;49.92
48848;BME280;36611;51.638;5.784;2022-07-10T07:17:40;102529.34;;;21.09;49.87
48848;BME280;36611;51.638;5.784;2022-07-10T07:20:26;102528.06;;;21.13;50.03
48848;BME280;36611;51.638;5.784;2022-07-10T07:23:14;102531.66;;;21.14;50.10
48848;BME280;36611;51.638;5.784;2022-07-10T07:25:41;102535.13;;;21.16;49.97
48848;BME280;36611;51.638;5.784;2022-07-10T07:28:14;102536.84;;;21.17;50.14
48848;BME280;36611;51.638;5.784;2022-07-10T07:30:48;102541.59;;;21.15;49.98
48848;BME280;36611;51.638;5.784;2022-07-10T07:33:20;102538.59;;;21.18;50.06
48848;BME280;36611;51.638;5.784;2022-07-10T07:35:46;102548.66;;;21.17;49.76
48848;BME280;36611;51.638;5.784;2022-07-10T07:38:13;102540.59;;;21.16;49.55
48848;BME280;36611;51.638;5.784;2022-07-10T07:40:39;102540.59;;;21.16;49.76
48848;BME280;36611;51.638;5.784;2022-07-10T07:43:10;102536.00;;;21.16;49.75
48848;BME280;36611;51.638;5.784;2022-07-10T07:45:38;102543.06;;;21.19;49.59
48848;BME280;36611;51.638;5.784;2022-07-10T07:48:04;102539.44;;;21.18;49.65
48848;BME280;36611;51.638;5.784;2022-07-10T07:50:33;102542.91;;;21.20;49.69
48848;BME280;36611;51.638;5.784;2022-07-10T07:53:01;102539.06;;;21.23;49.49
48848;BME280;36611;51.638;5.784;2022-07-10T07:55:29;102542.25;;;21.28;49.27
48848;BME280;36611;51.638;5.784;2022-07-10T07:57:57;102541.84;;;21.33;49.55
48848;BME280;36611;51.638;5.784;2022-07-10T08:00:26;102534.97;;;21.38;49.33
48848;BME280;36611;51.638;5.784;2022-07-10T08:02:58;102537.69;;;21.38;49.27
48848;BME280;36611;51.638;5.784;2022-07-10T08:05:27;102536.69;;;21.39;49.45
48848;BME280;36611;51.638;5.784;2022-07-10T08:07:56;102538.41;;;21.40;49.61
48848;BME280;36611;51.638;5.784;2022-07-10T08:10:25;102527.78;;;21.47;49.35
48848;BME280;36611;51.638;5.784;2022-07-10T08:12:57;102536.59;;;21.50;49.38
48848;BME280;36611;51.638;5.784;2022-07-10T08:15:24;102534.44;;;21.54;49.75
48848;BME280;36611;51.638;5.784;2022-07-10T08:17:52;102536.78;;;21.59;49.51
48848;BME280;36611;51.638;5.784;2022-07-10T08:20:19;102530.75;;;21.65;49.66
48848;BME280;36611;51.638;5.784;2022-07-10T08:22:50;102530.19;;;21.71;49.66
48848;BME280;36611;51.638;5.784;2022-07-10T08:25:26;102536.38;;;21.73;49.32
48848;BME280;36611;51.638;5.784;2022-07-10T08:27:52;102534.66;;;21.72;49.37
48848;BME280;36611;51.638;5.784;2022-07-10T08:30:19;102542.84;;;21.72;49.76
48848;BME280;36611;51.638;5.784;2022-07-10T08:32:46;102536.38;;;21.73;49.48
48848;BME280;36611;51.638;5.784;2022-07-10T08:35:12;102530.19;;;21.71;49.37
48848;BME280;36611;51.638;5.784;2022-07-10T08:37:41;102533.94;;;21.70;49.37
48848;BME280;36611;51.638;5.784;2022-07-10T08:40:09;102537.81;;;21.67;49.32
48848;BME280;36611;51.638;5.784;2022-07-10T08:42:37;102535.34;;;21.64;49.37
48848;BME280;36611;51.638;5.784;2022-07-10T08:45:04;102538.97;;;21.65;49.72
48848;BME280;36611;51.638;5.784;2022-07-10T08:47:35;102539.81;;;21.65;49.94
48848;BME280;36611;51.638;5.784;2022-07-10T08:53:00;102532.19;;;21.69;49.64
48848;BME280;36611;51.638;5.784;2022-07-10T08:55:27;102538.84;;;21.76;49.76
48848;BME280;36611;51.638;5.784;2022-07-10T08:57:54;102543.16;;;21.78;49.96
48848;BME280;36611;51.638;5.784;2022-07-10T09:00:23;102542.88;;;21.81;49.83
48848;BME280;36611;51.638;5.784;2022-07-10T09:02:54;102538.28;;;21.82;49.73
48848;BME280;36611;51.638;5.784;2022-07-10T09:05:21;102537.41;;;21.81;49.46
48848;BME280;36611;51.638;5.784;2022-07-10T09:07:48;102539.13;;;21.82;49.60
48848;BME280;36611;51.638;5.784;2022-07-10T09:10:14;102531.50;;;21.86;49.72
48848;BME280;36611;51.638;5.784;2022-07-10T09:12:55;102533.69;;;21.92;49.81
48848;BME280;36611;51.638;5.784;2022-07-10T09:15:31;102529.38;;;21.99;49.75
48848;BME280;36611;51.638;5.784;2022-07-10T09:18:03;102522.34;;;22.06;49.79
48848;BME280;36611;51.638;5.784;2022-07-10T09:20:34;102532.28;;;22.17;49.64
48848;BME280;36611;51.638;5.784;2022-07-10T09:23:20;102533.16;;;22.27;49.79
48848;BME280;36611;51.638;5.784;2022-07-10T09:25:49;102519.50;;;22.37;49.75
48848;BME280;36611;51.638;5.784;2022-07-10T09:28:18;102513.13;;;22.46;49.60
48848;BME280;36611;51.638;5.784;2022-07-10T09:30:46;102521.19;;;22.57;49.40
48848;BME280;36611;51.638;5.784;2022-07-10T09:33:27;102503.72;;;22.68;49.56
48848;BME280;36611;51.638;5.784;2022-07-10T09:35:56;102507.16;;;22.79;49.44
48848;BME280;36611;51.638;5.784;2022-07-10T09:41:12;102491.53;;;22.99;49.09
48848;BME280;36611;51.638;5.784;2022-07-10T09:43:44;102496.00;;;23.10;48.85
48848;BME280;36611;51.638;5.784;2022-07-10T09:46:12;102493.22;;;23.20;48.43
48848;BME280;36611;51.638;5.784;2022-07-10T09:48:38;102486.97;;;23.27;48.12
48848;BME280;36611;51.638;5.784;2022-07-10T09:51:08;102494.44;;;23.35;47.95
48848;BME280;36611;51.638;5.784;2022-07-10T09:53:43;102488.50;;;23.39;48.03
48848;BME280;36611;51.638;5.784;2022-07-10T09:56:13;102494.53;;;23.43;47.77
48848;BME280;36611;51.638;5.784;2022-07-10T09:58:40;102484.69;;;23.50;47.83
48848;BME280;36611;51.638;5.784;2022-07-10T10:01:08;102483.94;;;23.58;47.57
48848;BME280;36611;51.638;5.784;2022-07-10T10:03:39;102494.69;;;23.69;47.31
48848;BME280;36611;51.638;5.784;2022-07-10T10:06:15;102497.25;;;23.80;47.20
48848;BME280;36611;51.638;5.784;2022-07-10T10:11:19;102497.56;;;24.13;47.16
48848;BME280;36611;51.638;5.784;2022-07-10T10:13:53;102498.16;;;24.24;46.73
48848;BME280;36611;51.638;5.784;2022-07-10T10:16:20;102502.91;;;24.32;46.61
48848;BME280;36611;51.638;5.784;2022-07-10T10:18:47;102497.78;;;24.37;46.25
48848;BME280;36611;51.638;5.784;2022-07-10T10:21:32;102496.44;;;24.41;46.13
48848;BME280;36611;51.638;5.784;2022-07-10T10:24:01;102498.03;;;24.44;46.02
48848;BME280;36611;51.638;5.784;2022-07-10T10:26:29;102495.81;;;24.47;45.51
48848;BME280;36611;51.638;5.784;2022-07-10T10:28:57;102494.94;;;24.47;45.69
48848;BME280;36611;51.638;5.784;2022-07-10T10:31:26;102492.03;;;24.48;45.26
48848;BME280;36611;51.638;5.784;2022-07-10T10:33:59;102498.41;;;24.49;45.14
48848;BME280;36611;51.638;5.784;2022-07-10T10:39:18;102482.47;;;24.52;44.93
48848;BME280;36611;51.638;5.784;2022-07-10T10:41:52;102490.41;;;24.55;44.85
48848;BME280;36611;51.638;5.784;2022-07-10T10:44:21;102489.72;;;24.53;44.87
48848;BME280;36611;51.638;5.784;2022-07-10T10:49:24;102475.34;;;24.59;44.97
48848;BME280;36611;51.638;5.784;2022-07-10T10:52:02;102479.00;;;24.68;44.93
48848;BME280;36611;51.638;5.784;2022-07-10T10:54:32;102467.88;;;24.78;44.71
48848;BME280;36611;51.638;5.784;2022-07-10T10:57:17;102470.34;;;24.89;44.62
48848;BME280;36611;51.638;5.784;2022-07-10T10:59:50;102464.59;;;25.00;44.32
48848;BME280;36611;51.638;5.784;2022-07-10T11:02:39;102458.44;;;25.06;44.11
48848;BME280;36611;51.638;5.784;2022-07-10T11:07:55;102462.19;;;25.31;43.79
48848;BME280;36611;51.638;5.784;2022-07-10T11:10:39;102455.53;;;25.42;43.53
48848;BME280;36611;51.638;5.784;2022-07-10T11:13:17;102454.16;;;25.54;43.38
48848;BME280;36611;51.638;5.784;2022-07-10T11:18:12;102452.00;;;25.74;42.90
48848;BME280;36611;51.638;5.784;2022-07-10T11:20:43;102460.78;;;25.85;42.87
48848;BME280;36611;51.638;5.784;2022-07-10T11:26:11;102459.47;;;26.06;42.58
48848;BME280;36611;51.638;5.784;2022-07-10T11:28:52;102464.28;;;26.12;42.46
48848;BME280;36611;51.638;5.784;2022-07-10T11:31:21;102456.38;;;26.17;42.62
48848;BME280;36611;51.638;5.784;2022-07-10T11:33:51;102447.25;;;26.16;42.16
48848;BME280;36611;51.638;5.784;2022-07-10T11:36:20;102452.94;;;26.15;41.99
48848;BME280;36611;51.638;5.784;2022-07-10T11:39:16;102442.59;;;26.17;42.14
48848;BME280;36611;51.638;5.784;2022-07-10T11:41:44;102435.03;;;26.19;42.04
48848;BME280;36611;51.638;5.784;2022-07-10T11:44:18;102428.47;;;26.20;42.17
48848;BME280;36611;51.638;5.784;2022-07-10T11:46:47;102427.09;;;26.24;42.42
48848;BME280;36611;51.638;5.784;2022-07-10T11:49:16;102413.50;;;26.31;42.14
48848;BME280;36611;51.638;5.784;2022-07-10T11:51:43;102417.66;;;26.35;41.96
48848;BME280;36611;51.638;5.784;2022-07-10T11:54:16;102429.00;;;26.40;41.83
48848;BME280;36611;51.638;5.784;2022-07-10T11:56:52;102424.00;;;26.43;41.75
48848;BME280;36611;51.638;5.784;2022-07-10T11:59:24;102422.63;;;26.39;41.42
48848;BME280;36611;51.638;5.784;2022-07-10T12:01:53;102428.28;;;26.29;41.40
48848;BME280;36611;51.638;5.784;2022-07-10T12:04:21;102431.25;;;26.20;41.50
48848;BME280;36611;51.638;5.784;2022-07-10T12:06:51;102430.22;;;26.13;41.65
48848;BME280;36611;51.638;5.784;2022-07-10T12:09:20;102427.13;;;26.08;41.36
48848;BME280;36611;51.638;5.784;2022-07-10T12:12:06;102438.81;;;26.02;41.54
48848;BME280;36611;51.638;5.784;2022-07-10T12:14:34;102438.44;;;25.96;41.41
48848;BME280;36611;51.638;5.784;2022-07-10T12:17:10;102443.25;;;25.86;41.43
48848;BME280;36611;51.638;5.784;2022-07-10T12:19:38;102435.69;;;25.80;41.48
48848;BME280;36611;51.638;5.784;2022-07-10T12:22:05;102436.34;;;25.74;41.67
48848;BME280;36611;51.638;5.784;2022-07-10T12:24:32;102436.88;;;25.78;41.70
48848;BME280;36611;51.638;5.784;2022-07-10T12:26:59;102442.38;;;25.78;41.81
48848;BME280;36611;51.638;5.784;2022-07-10T12:29:29;102440.31;;;25.80;41.81
48848;BME280;36611;51.638;5.784;2022-07-10T12:31:59;102440.84;;;25.83;41.84
48848;BME280;36611;51.638;5.784;2022-07-10T12:34:35;102443.94;;;25.88;41.89
48848;BME280;36611;51.638;5.784;2022-07-10T12:37:10;102443.25;;;25.94;41.81
48848;BME280;36611;51.638;5.784;2022-07-10T12:39:45;102428.97;;;25.99;41.66
48848;BME280;36611;51.638;5.784;2022-07-10T12:42:12;102430.38;;;26.03;41.64
48848;BME280;36611;51.638;5.784;2022-07-10T12:44:44;102433.66;;;26.07;41.78
48848;BME280;36611;51.638;5.784;2022-07-10T12:47:16;102439.34;;;26.05;41.57
48848;BME280;36611;51.638;5.784;2022-07-10T12:49:57;102439.50;;;26.04;41.51
48848;BME280;36611;51.638;5.784;2022-07-10T12:52:35;102431.91;;;25.97;41.35
48848;BME280;36611;51.638;5.784;2022-07-10T12:55:09;102432.59;;;26.00;41.58
48848;BME280;36611;51.638;5.784;2022-07-10T12:57:49;102431.59;;;26.09;41.68
48848;BME280;36611;51.638;5.784;2022-07-10T13:00:21;102436.56;;;26.13;41.30
48848;BME280;36611;51.638;5.784;2022-07-10T13:03:18;102425.03;;;26.10;41.29
48848;BME280;36611;51.638;5.784;2022-07-10T13:05:46;102427.44;;;26.13;41.39
48848;BME280;36611;51.638;5.784;2022-07-10T13:08:15;102427.44;;;26.13;41.36
48848;BME280;36611;51.638;5.784;2022-07-10T13:10:44;102423.84;;;26.20;41.31
48848;BME280;36611;51.638;5.784;2022-07-10T13:13:15;102427.63;;;26.19;41.26
48848;BME280;36611;51.638;5.784;2022-07-10T13:15:42;102424.00;;;26.19;41.27
48848;BME280;36611;51.638;5.784;2022-07-10T13:18:25;102422.63;;;26.15;41.07
48848;BME280;36611;51.638;5.784;2022-07-10T13:20:54;102414.53;;;26.13;40.95
48848;BME280;36611;51.638;5.784;2022-07-10T13:23:30;102426.06;;;26.17;41.21
48848;BME280;36611;51.638;5.784;2022-07-10T13:25:57;102409.72;;;26.23;41.24
48848;BME280;36611;51.638;5.784;2022-07-10T13:28:25;102416.41;;;26.29;41.12